sensor_id;sensor_type;location;lat;lon;timestamp;P1;durP1;ratioP1;P2;durP2;ratioP2
11396;SDS011;5754;43.726;7.416;2024-03-17T00:02:02;14.83;;;13.80;;
11396;SDS011;5754;43.726;7.416;2024-03-17T00:04:38;16.23;;;13.97;;
11396;SDS011;5754;43.726;7.416;2024-03-17T00:07:13;14.77;;;13.57;;
11396;SDS011;5754;43.726;7.416;2024-03-17T00:09:48;16.10;;;14.70;;
11396;SDS011;5754;43.726;7.416;2024-03-17T00:12:25;15.80;;;14.20;;
11396;SDS011;5754;43.726;7.416;2024-03-17T00:14:59;15.63;;;14.23;;
11396;SDS011;5754;43.726;7.416;2024-03-17T00:17:34;15.87;;;14.37;;
11396;SDS011;5754;43.726;7.416;2024-03-17T00:20:09;16.13;;;14.67;;
11396;SDS011;5754;43.726;7.416;2024-03-17T00:22:52;17.57;;;15.87;;
11396;SDS011;5754;43.726;7.416;2024-03-17T00:25:28;15.87;;;14.50;;
11396;SDS011;5754;43.726;7.416;2024-03-17T00:28:02;16.13;;;14.63;;
11396;SDS011;5754;43.726;7.416;2024-03-17T00:30:37;14.73;;;13.60;;
11396;SDS011;5754;43.726;7.416;2024-03-17T00:33:12;16.20;;;14.63;;
11396;SDS011;5754;43.726;7.416;2024-03-17T00:35:48;15.77;;;14.37;;
11396;SDS011;5754;43.726;7.416;2024-03-17T00:38:23;15.37;;;14.20;;
11396;SDS011;5754;43.726;7.416;2024-03-17T00:40:58;16.50;;;14.90;;
11396;SDS011;5754;43.726;7.416;2024-03-17T00:43:33;15.53;;;14.43;;
11396;SDS011;5754;43.726;7.416;2024-03-17T00:46:08;16.67;;;15.03;;
11396;SDS011;5754;43.726;7.416;2024-03-17T00:48:43;15.83;;;14.37;;
11396;SDS011;5754;43.726;7.416;2024-03-17T00:51:17;15.93;;;14.43;;
11396;SDS011;5754;43.726;7.416;2024-03-17T00:53:52;15.97;;;14.57;;
11396;SDS011;5754;43.726;7.416;2024-03-17T00:56:27;15.07;;;13.93;;
11396;SDS011;5754;43.726;7.416;2024-03-17T00:59:03;15.47;;;14.30;;
11396;SDS011;5754;43.726;7.416;2024-03-17T01:01:37;15.83;;;14.50;;
11396;SDS011;5754;43.726;7.416;2024-03-17T01:04:12;15.73;;;14.43;;
11396;SDS011;5754;43.726;7.416;2024-03-17T01:06:46;16.33;;;14.73;;
11396;SDS011;5754;43.726;7.416;2024-03-17T01:09:21;16.17;;;14.77;;
11396;SDS011;5754;43.726;7.416;2024-03-17T01:11:56;15.97;;;14.37;;
11396;SDS011;5754;43.726;7.416;2024-03-17T01:14:33;15.30;;;14.00;;
11396;SDS011;5754;43.726;7.416;2024-03-17T01:17:08;15.03;;;13.60;;
11396;SDS011;5754;43.726;7.416;2024-03-17T01:19:44;15.27;;;14.07;;
11396;SDS011;5754;43.726;7.416;2024-03-17T01:22:19;15.00;;;13.57;;
11396;SDS011;5754;43.726;7.416;2024-03-17T01:24:54;14.60;;;13.30;;
11396;SDS011;5754;43.726;7.416;2024-03-17T01:27:30;14.33;;;13.23;;
11396;SDS011;5754;43.726;7.416;2024-03-17T01:30:04;15.70;;;14.13;;
11396;SDS011;5754;43.726;7.416;2024-03-17T01:32:39;14.83;;;13.50;;
11396;SDS011;5754;43.726;7.416;2024-03-17T01:35:13;15.47;;;13.87;;
11396;SDS011;5754;43.726;7.416;2024-03-17T01:37:49;14.60;;;13.43;;
11396;SDS011;5754;43.726;7.416;2024-03-17T01:40:23;15.10;;;13.70;;
11396;SDS011;5754;43.726;7.416;2024-03-17T01:42:57;14.30;;;13.20;;
11396;SDS011;5754;43.726;7.416;2024-03-17T01:45:33;15.13;;;13.77;;
11396;SDS011;5754;43.726;7.416;2024-03-17T01:48:11;15.27;;;13.80;;
11396;SDS011;5754;43.726;7.416;2024-03-17T01:50:51;14.67;;;13.20;;
11396;SDS011;5754;43.726;7.416;2024-03-17T01:53:27;13.17;;;11.87;;
11396;SDS011;5754;43.726;7.416;2024-03-17T01:56:01;13.63;;;12.43;;
11396;SDS011;5754;43.726;7.416;2024-03-17T01:58:37;12.23;;;11.33;;
11396;SDS011;5754;43.726;7.416;2024-03-17T02:01:11;13.70;;;12.30;;
11396;SDS011;5754;43.726;7.416;2024-03-17T02:03:49;12.80;;;11.70;;
11396;SDS011;5754;43.726;7.416;2024-03-17T02:06:24;13.57;;;12.17;;
11396;SDS011;5754;43.726;7.416;2024-03-17T02:08:59;13.53;;;12.43;;
11396;SDS011;5754;43.726;7.416;2024-03-17T02:11:35;14.13;;;12.83;;
11396;SDS011;5754;43.726;7.416;2024-03-17T02:14:10;13.93;;;12.83;;
11396;SDS011;5754;43.726;7.416;2024-03-17T02:16:47;14.73;;;13.40;;
11396;SDS011;5754;43.726;7.416;2024-03-17T02:19:22;14.10;;;13.00;;
11396;SDS011;5754;43.726;7.416;2024-03-17T02:21:57;15.67;;;14.57;;
11396;SDS011;5754;43.726;7.416;2024-03-17T02:24:32;14.70;;;13.60;;
11396;SDS011;5754;43.726;7.416;2024-03-17T02:27:07;13.70;;;12.70;;
11396;SDS011;5754;43.726;7.416;2024-03-17T02:29:42;15.27;;;13.87;;
11396;SDS011;5754;43.726;7.416;2024-03-17T02:32:17;15.03;;;13.63;;
11396;SDS011;5754;43.726;7.416;2024-03-17T02:34:53;14.43;;;13.23;;
11396;SDS011;5754;43.726;7.416;2024-03-17T02:37:28;15.10;;;13.83;;
11396;SDS011;5754;43.726;7.416;2024-03-17T02:40:02;14.73;;;13.57;;
11396;SDS011;5754;43.726;7.416;2024-03-17T02:42:41;15.93;;;14.37;;
11396;SDS011;5754;43.726;7.416;2024-03-17T02:45:15;15.17;;;13.90;;
11396;SDS011;5754;43.726;7.416;2024-03-17T02:47:51;15.07;;;13.67;;
11396;SDS011;5754;43.726;7.416;2024-03-17T02:50:25;14.57;;;13.27;;
11396;SDS011;5754;43.726;7.416;2024-03-17T02:52:59;14.90;;;13.50;;
11396;SDS011;5754;43.726;7.416;2024-03-17T02:55:38;15.70;;;14.27;;
11396;SDS011;5754;43.726;7.416;2024-03-17T02:58:14;15.33;;;13.93;;
11396;SDS011;5754;43.726;7.416;2024-03-17T03:00:49;15.10;;;13.80;;
11396;SDS011;5754;43.726;7.416;2024-03-17T03:03:24;13.37;;;12.37;;
11396;SDS011;5754;43.726;7.416;2024-03-17T03:05:59;13.90;;;12.97;;
11396;SDS011;5754;43.726;7.416;2024-03-17T03:08:41;14.80;;;13.47;;
11396;SDS011;5754;43.726;7.416;2024-03-17T03:11:17;15.60;;;14.20;;
11396;SDS011;5754;43.726;7.416;2024-03-17T03:13:52;14.40;;;13.10;;
11396;SDS011;5754;43.726;7.416;2024-03-17T03:16:27;14.13;;;12.93;;
11396;SDS011;5754;43.726;7.416;2024-03-17T03:19:02;15.53;;;14.10;;
11396;SDS011;5754;43.726;7.416;2024-03-17T03:21:36;14.70;;;13.30;;
11396;SDS011;5754;43.726;7.416;2024-03-17T03:24:11;14.40;;;13.20;;
11396;SDS011;5754;43.726;7.416;2024-03-17T03:26:46;14.73;;;13.43;;
11396;SDS011;5754;43.726;7.416;2024-03-17T03:29:22;14.47;;;13.17;;
11396;SDS011;5754;43.726;7.416;2024-03-17T03:31:56;14.70;;;13.23;;
11396;SDS011;5754;43.726;7.416;2024-03-17T03:34:32;13.37;;;12.27;;
11396;SDS011;5754;43.726;7.416;2024-03-17T03:37:07;14.47;;;13.07;;
11396;SDS011;5754;43.726;7.416;2024-03-17T03:39:43;14.70;;;13.40;;
11396;SDS011;5754;43.726;7.416;2024-03-17T03:42:18;14.70;;;12.87;;
11396;SDS011;5754;43.726;7.416;2024-03-17T03:44:53;14.00;;;12.90;;
11396;SDS011;5754;43.726;7.416;2024-03-17T03:47:28;15.60;;;14.10;;
11396;SDS011;5754;43.726;7.416;2024-03-17T03:50:03;14.40;;;13.10;;
11396;SDS011;5754;43.726;7.416;2024-03-17T03:52:39;13.97;;;12.50;;
11396;SDS011;5754;43.726;7.416;2024-03-17T03:55:16;14.23;;;12.47;;
11396;SDS011;5754;43.726;7.416;2024-03-17T03:57:53;14.03;;;12.67;;
11396;SDS011;5754;43.726;7.416;2024-03-17T04:00:27;14.63;;;13.20;;
11396;SDS011;5754;43.726;7.416;2024-03-17T04:03:05;14.23;;;12.93;;
11396;SDS011;5754;43.726;7.416;2024-03-17T04:05:40;14.47;;;13.07;;
11396;SDS011;5754;43.726;7.416;2024-03-17T04:08:14;14.57;;;12.70;;
11396;SDS011;5754;43.726;7.416;2024-03-17T04:10:50;15.90;;;14.40;;
11396;SDS011;5754;43.726;7.416;2024-03-17T04:13:25;15.00;;;13.37;;
11396;SDS011;5754;43.726;7.416;2024-03-17T04:16:04;14.10;;;12.70;;
11396;SDS011;5754;43.726;7.416;2024-03-17T04:18:41;13.67;;;12.43;;
11396;SDS011;5754;43.726;7.416;2024-03-17T04:21:16;16.50;;;13.53;;
11396;SDS011;5754;43.726;7.416;2024-03-17T04:23:50;15.87;;;13.37;;
11396;SDS011;5754;43.726;7.416;2024-03-17T04:29:07;14.40;;;12.97;;
11396;SDS011;5754;43.726;7.416;2024-03-17T04:31:43;14.47;;;12.20;;
11396;SDS011;5754;43.726;7.416;2024-03-17T04:34:22;14.43;;;13.03;;
11396;SDS011;5754;43.726;7.416;2024-03-17T04:36:57;13.70;;;12.10;;
11396;SDS011;5754;43.726;7.416;2024-03-17T04:39:31;15.53;;;13.43;;
11396;SDS011;5754;43.726;7.416;2024-03-17T04:42:09;15.73;;;13.57;;
11396;SDS011;5754;43.726;7.416;2024-03-17T04:44:44;15.50;;;13.83;;
11396;SDS011;5754;43.726;7.416;2024-03-17T04:47:19;14.47;;;12.77;;
11396;SDS011;5754;43.726;7.416;2024-03-17T04:49:53;12.80;;;11.50;;
11396;SDS011;5754;43.726;7.416;2024-03-17T04:52:28;13.73;;;11.87;;
11396;SDS011;5754;43.726;7.416;2024-03-17T04:55:03;16.87;;;12.23;;
11396;SDS011;5754;43.726;7.416;2024-03-17T04:57:39;12.93;;;11.63;;
11396;SDS011;5754;43.726;7.416;2024-03-17T05:00:14;12.30;;;11.10;;
11396;SDS011;5754;43.726;7.416;2024-03-17T05:02:51;12.10;;;10.83;;
11396;SDS011;5754;43.726;7.416;2024-03-17T05:05:28;12.00;;;10.77;;
11396;SDS011;5754;43.726;7.416;2024-03-17T05:08:03;13.67;;;11.23;;
11396;SDS011;5754;43.726;7.416;2024-03-17T05:10:39;14.63;;;12.20;;
11396;SDS011;5754;43.726;7.416;2024-03-17T05:13:13;13.97;;;11.70;;
11396;SDS011;5754;43.726;7.416;2024-03-17T05:15:47;14.23;;;11.83;;
11396;SDS011;5754;43.726;7.416;2024-03-17T05:18:23;16.23;;;10.83;;
11396;SDS011;5754;43.726;7.416;2024-03-17T05:21:05;13.17;;;10.77;;
11396;SDS011;5754;43.726;7.416;2024-03-17T05:23:39;12.67;;;11.43;;
11396;SDS011;5754;43.726;7.416;2024-03-17T05:26:15;12.83;;;11.60;;
11396;SDS011;5754;43.726;7.416;2024-03-17T05:28:49;15.60;;;11.37;;
11396;SDS011;5754;43.726;7.416;2024-03-17T05:31:25;13.50;;;11.37;;
11396;SDS011;5754;43.726;7.416;2024-03-17T05:34:00;12.97;;;11.67;;
11396;SDS011;5754;43.726;7.416;2024-03-17T05:36:36;12.63;;;11.27;;
11396;SDS011;5754;43.726;7.416;2024-03-17T05:39:11;13.50;;;11.30;;
11396;SDS011;5754;43.726;7.416;2024-03-17T05:41:46;12.10;;;11.00;;
11396;SDS011;5754;43.726;7.416;2024-03-17T05:44:23;13.43;;;12.03;;
11396;SDS011;5754;43.726;7.416;2024-03-17T05:46:57;13.77;;;12.13;;
11396;SDS011;5754;43.726;7.416;2024-03-17T05:49:33;16.10;;;10.80;;
11396;SDS011;5754;43.726;7.416;2024-03-17T05:52:07;13.57;;;12.23;;
11396;SDS011;5754;43.726;7.416;2024-03-17T05:54:43;12.23;;;10.97;;
11396;SDS011;5754;43.726;7.416;2024-03-17T05:57:17;14.03;;;11.67;;
11396;SDS011;5754;43.726;7.416;2024-03-17T05:59:52;15.60;;;12.67;;
11396;SDS011;5754;43.726;7.416;2024-03-17T06:02:27;14.63;;;12.17;;
11396;SDS011;5754;43.726;7.416;2024-03-17T06:05:05;14.13;;;12.83;;
11396;SDS011;5754;43.726;7.416;2024-03-17T06:07:44;14.50;;;13.10;;
11396;SDS011;5754;43.726;7.416;2024-03-17T06:10:30;16.17;;;12.87;;
11396;SDS011;5754;43.726;7.416;2024-03-17T06:13:05;14.03;;;12.63;;
11396;SDS011;5754;43.726;7.416;2024-03-17T06:15:40;13.47;;;12.20;;
11396;SDS011;5754;43.726;7.416;2024-03-17T06:18:14;13.90;;;12.40;;
11396;SDS011;5754;43.726;7.416;2024-03-17T06:20:51;13.97;;;12.53;;
11396;SDS011;5754;43.726;7.416;2024-03-17T06:23:26;13.30;;;11.97;;
11396;SDS011;5754;43.726;7.416;2024-03-17T06:26:02;14.23;;;12.83;;
11396;SDS011;5754;43.726;7.416;2024-03-17T06:28:40;16.27;;;12.80;;
11396;SDS011;5754;43.726;7.416;2024-03-17T06:31:16;14.17;;;12.97;;
11396;SDS011;5754;43.726;7.416;2024-03-17T06:33:50;15.57;;;13.27;;
11396;SDS011;5754;43.726;7.416;2024-03-17T06:36:25;13.80;;;12.50;;
11396;SDS011;5754;43.726;7.416;2024-03-17T06:38:59;14.37;;;12.60;;
11396;SDS011;5754;43.726;7.416;2024-03-17T06:41:34;13.60;;;12.40;;
11396;SDS011;5754;43.726;7.416;2024-03-17T06:44:08;15.43;;;12.57;;
11396;SDS011;5754;43.726;7.416;2024-03-17T06:46:42;14.07;;;12.57;;
11396;SDS011;5754;43.726;7.416;2024-03-17T06:49:20;14.93;;;12.33;;
11396;SDS011;5754;43.726;7.416;2024-03-17T06:51:55;15.17;;;12.27;;
11396;SDS011;5754;43.726;7.416;2024-03-17T06:54:29;16.43;;;14.53;;
11396;SDS011;5754;43.726;7.416;2024-03-17T06:57:06;15.33;;;13.47;;
11396;SDS011;5754;43.726;7.416;2024-03-17T06:59:41;13.53;;;12.20;;
11396;SDS011;5754;43.726;7.416;2024-03-17T07:02:16;15.07;;;12.77;;
11396;SDS011;5754;43.726;7.416;2024-03-17T07:04:53;14.83;;;12.23;;
11396;SDS011;5754;43.726;7.416;2024-03-17T07:07:28;14.93;;;12.57;;
11396;SDS011;5754;43.726;7.416;2024-03-17T07:10:04;15.17;;;12.63;;
11396;SDS011;5754;43.726;7.416;2024-03-17T07:12:38;14.20;;;12.83;;
11396;SDS011;5754;43.726;7.416;2024-03-17T07:15:16;17.43;;;13.80;;
11396;SDS011;5754;43.726;7.416;2024-03-17T07:17:50;16.07;;;14.47;;
11396;SDS011;5754;43.726;7.416;2024-03-17T07:20:25;15.97;;;14.37;;
11396;SDS011;5754;43.726;7.416;2024-03-17T07:23:01;16.03;;;14.33;;
11396;SDS011;5754;43.726;7.416;2024-03-17T07:25:35;16.57;;;14.83;;
11396;SDS011;5754;43.726;7.416;2024-03-17T07:28:11;15.90;;;14.20;;
11396;SDS011;5754;43.726;7.416;2024-03-17T07:30:49;16.43;;;14.87;;
11396;SDS011;5754;43.726;7.416;2024-03-17T07:33:24;16.73;;;13.93;;
11396;SDS011;5754;43.726;7.416;2024-03-17T07:35:59;15.60;;;13.97;;
11396;SDS011;5754;43.726;7.416;2024-03-17T07:38:35;16.80;;;14.63;;
11396;SDS011;5754;43.726;7.416;2024-03-17T07:41:10;17.53;;;15.87;;
11396;SDS011;5754;43.726;7.416;2024-03-17T07:43:44;16.40;;;14.73;;
11396;SDS011;5754;43.726;7.416;2024-03-17T07:46:20;16.33;;;14.83;;
11396;SDS011;5754;43.726;7.416;2024-03-17T07:48:54;16.70;;;15.17;;
11396;SDS011;5754;43.726;7.416;2024-03-17T07:51:30;15.60;;;13.97;;
11396;SDS011;5754;43.726;7.416;2024-03-17T07:54:08;15.57;;;13.97;;
11396;SDS011;5754;43.726;7.416;2024-03-17T07:56:43;15.70;;;14.37;;
11396;SDS011;5754;43.726;7.416;2024-03-17T07:59:17;15.17;;;13.97;;
11396;SDS011;5754;43.726;7.416;2024-03-17T08:01:51;15.77;;;14.23;;
11396;SDS011;5754;43.726;7.416;2024-03-17T08:04:26;18.43;;;14.20;;
11396;SDS011;5754;43.726;7.416;2024-03-17T08:07:00;14.67;;;13.30;;
11396;SDS011;5754;43.726;7.416;2024-03-17T08:09:35;15.17;;;13.70;;
11396;SDS011;5754;43.726;7.416;2024-03-17T08:12:10;15.40;;;14.17;;
11396;SDS011;5754;43.726;7.416;2024-03-17T08:14:44;15.47;;;14.07;;
11396;SDS011;5754;43.726;7.416;2024-03-17T08:17:20;15.10;;;13.93;;
11396;SDS011;5754;43.726;7.416;2024-03-17T08:19:54;15.53;;;14.03;;
11396;SDS011;5754;43.726;7.416;2024-03-17T08:22:30;15.00;;;13.80;;
11396;SDS011;5754;43.726;7.416;2024-03-17T08:25:05;15.87;;;14.63;;
11396;SDS011;5754;43.726;7.416;2024-03-17T08:27:41;16.00;;;14.60;;
11396;SDS011;5754;43.726;7.416;2024-03-17T08:30:15;16.00;;;14.60;;
11396;SDS011;5754;43.726;7.416;2024-03-17T08:32:52;16.50;;;15.10;;
11396;SDS011;5754;43.726;7.416;2024-03-17T08:35:27;16.27;;;14.97;;
11396;SDS011;5754;43.726;7.416;2024-03-17T08:38:01;17.00;;;15.40;;
11396;SDS011;5754;43.726;7.416;2024-03-17T08:40:36;17.20;;;15.60;;
11396;SDS011;5754;43.726;7.416;2024-03-17T08:43:11;17.00;;;15.30;;
11396;SDS011;5754;43.726;7.416;2024-03-17T08:51:53;16.37;;;14.87;;
11396;SDS011;5754;43.726;7.416;2024-03-17T08:54:31;15.77;;;14.33;;
11396;SDS011;5754;43.726;7.416;2024-03-17T08:57:06;16.60;;;14.93;;
11396;SDS011;5754;43.726;7.416;2024-03-17T08:59:45;16.57;;;14.87;;
11396;SDS011;5754;43.726;7.416;2024-03-17T09:02:21;16.63;;;15.10;;
11396;SDS011;5754;43.726;7.416;2024-03-17T09:04:56;16.10;;;14.70;;
11396;SDS011;5754;43.726;7.416;2024-03-17T09:07:31;16.53;;;14.73;;
11396;SDS011;5754;43.726;7.416;2024-03-17T09:10:06;16.93;;;15.47;;
11396;SDS011;5754;43.726;7.416;2024-03-17T09:12:42;17.07;;;15.77;;
11396;SDS011;5754;43.726;7.416;2024-03-17T09:15:16;18.33;;;16.83;;
11396;SDS011;5754;43.726;7.416;2024-03-17T09:17:51;19.47;;;17.57;;
11396;SDS011;5754;43.726;7.416;2024-03-17T09:20:25;18.60;;;17.03;;
11396;SDS011;5754;43.726;7.416;2024-03-17T09:23:00;18.70;;;17.10;;
11396;SDS011;5754;43.726;7.416;2024-03-17T09:25:34;19.23;;;17.70;;
11396;SDS011;5754;43.726;7.416;2024-03-17T09:28:09;19.20;;;17.27;;
11396;SDS011;5754;43.726;7.416;2024-03-17T09:30:48;20.30;;;18.70;;
11396;SDS011;5754;43.726;7.416;2024-03-17T09:33:24;19.97;;;18.17;;
11396;SDS011;5754;43.726;7.416;2024-03-17T09:36:00;18.33;;;16.70;;
11396;SDS011;5754;43.726;7.416;2024-03-17T09:38:35;18.60;;;17.00;;
11396;SDS011;5754;43.726;7.416;2024-03-17T09:41:16;18.97;;;17.43;;
11396;SDS011;5754;43.726;7.416;2024-03-17T09:43:54;19.73;;;18.13;;
11396;SDS011;5754;43.726;7.416;2024-03-17T09:46:28;20.70;;;19.10;;
11396;SDS011;5754;43.726;7.416;2024-03-17T09:49:03;20.10;;;18.77;;
11396;SDS011;5754;43.726;7.416;2024-03-17T09:51:38;19.80;;;18.03;;
11396;SDS011;5754;43.726;7.416;2024-03-17T09:54:17;19.33;;;17.73;;
11396;SDS011;5754;43.726;7.416;2024-03-17T09:56:54;18.97;;;17.67;;
11396;SDS011;5754;43.726;7.416;2024-03-17T09:59:29;19.07;;;17.77;;
11396;SDS011;5754;43.726;7.416;2024-03-17T10:02:03;20.83;;;19.03;;
11396;SDS011;5754;43.726;7.416;2024-03-17T10:04:46;21.20;;;19.53;;
11396;SDS011;5754;43.726;7.416;2024-03-17T10:07:30;22.13;;;20.43;;
11396;SDS011;5754;43.726;7.416;2024-03-17T10:10:12;23.27;;;21.60;;
11396;SDS011;5754;43.726;7.416;2024-03-17T10:12:50;24.13;;;22.33;;
11396;SDS011;5754;43.726;7.416;2024-03-17T10:15:26;24.60;;;22.90;;
11396;SDS011;5754;43.726;7.416;2024-03-17T10:18:00;23.43;;;22.03;;
11396;SDS011;5754;43.726;7.416;2024-03-17T10:20:35;22.30;;;20.77;;
11396;SDS011;5754;43.726;7.416;2024-03-17T10:23:11;22.27;;;20.67;;
11396;SDS011;5754;43.726;7.416;2024-03-17T10:25:48;23.30;;;21.53;;
11396;SDS011;5754;43.726;7.416;2024-03-17T10:28:23;24.37;;;22.83;;
11396;SDS011;5754;43.726;7.416;2024-03-17T10:30:59;25.50;;;23.50;;
11396;SDS011;5754;43.726;7.416;2024-03-17T10:33:34;26.03;;;23.87;;
11396;SDS011;5754;43.726;7.416;2024-03-17T10:36:15;25.63;;;24.10;;
11396;SDS011;5754;43.726;7.416;2024-03-17T10:38:51;26.03;;;24.13;;
11396;SDS011;5754;43.726;7.416;2024-03-17T10:41:27;27.00;;;24.90;;
11396;SDS011;5754;43.726;7.416;2024-03-17T10:44:02;26.93;;;25.23;;
11396;SDS011;5754;43.726;7.416;2024-03-17T10:46:38;28.80;;;26.87;;
11396;SDS011;5754;43.726;7.416;2024-03-17T10:49:18;26.97;;;24.70;;
11396;SDS011;5754;43.726;7.416;2024-03-17T10:51:55;27.40;;;25.43;;
11396;SDS011;5754;43.726;7.416;2024-03-17T10:54:31;26.10;;;24.20;;
11396;SDS011;5754;43.726;7.416;2024-03-17T10:57:24;25.93;;;24.13;;
11396;SDS011;5754;43.726;7.416;2024-03-17T11:00:03;27.87;;;25.53;;
11396;SDS011;5754;43.726;7.416;2024-03-17T11:02:39;26.17;;;24.17;;
11396;SDS011;5754;43.726;7.416;2024-03-17T11:05:17;26.43;;;24.63;;
11396;SDS011;5754;43.726;7.416;2024-03-17T11:07:53;25.43;;;23.77;;
11396;SDS011;5754;43.726;7.416;2024-03-17T11:10:34;26.53;;;24.67;;
11396;SDS011;5754;43.726;7.416;2024-03-17T11:13:22;25.77;;;23.90;;
11396;SDS011;5754;43.726;7.416;2024-03-17T11:15:58;25.83;;;23.57;;
11396;SDS011;5754;43.726;7.416;2024-03-17T11:18:37;24.73;;;23.07;;
11396;SDS011;5754;43.726;7.416;2024-03-17T11:21:19;25.13;;;23.20;;
11396;SDS011;5754;43.726;7.416;2024-03-17T11:23:59;24.47;;;22.57;;
11396;SDS011;5754;43.726;7.416;2024-03-17T11:26:36;25.37;;;23.60;;
11396;SDS011;5754;43.726;7.416;2024-03-17T11:29:27;25.73;;;23.90;;
11396;SDS011;5754;43.726;7.416;2024-03-17T11:32:23;27.10;;;25.23;;
11396;SDS011;5754;43.726;7.416;2024-03-17T11:35:12;28.17;;;26.27;;
11396;SDS011;5754;43.726;7.416;2024-03-17T11:37:48;28.50;;;26.50;;
11396;SDS011;5754;43.726;7.416;2024-03-17T11:40:26;26.83;;;24.93;;
11396;SDS011;5754;43.726;7.416;2024-03-17T11:43:04;27.67;;;25.73;;
11396;SDS011;5754;43.726;7.416;2024-03-17T11:45:39;29.47;;;27.13;;
11396;SDS011;5754;43.726;7.416;2024-03-17T11:48:14;29.43;;;27.23;;
11396;SDS011;5754;43.726;7.416;2024-03-17T11:50:49;29.03;;;27.23;;
11396;SDS011;5754;43.726;7.416;2024-03-17T11:53:25;32.13;;;29.70;;
11396;SDS011;5754;43.726;7.416;2024-03-17T11:56:01;33.63;;;31.37;;
11396;SDS011;5754;43.726;7.416;2024-03-17T11:58:38;35.30;;;32.90;;
11396;SDS011;5754;43.726;7.416;2024-03-17T12:01:15;35.00;;;32.70;;
11396;SDS011;5754;43.726;7.416;2024-03-17T12:03:50;35.07;;;32.83;;
11396;SDS011;5754;43.726;7.416;2024-03-17T12:06:26;34.70;;;32.40;;
11396;SDS011;5754;43.726;7.416;2024-03-17T12:13:32;37.43;;;35.13;;
11396;SDS011;5754;43.726;7.416;2024-03-17T12:16:11;35.77;;;33.50;;
11396;SDS011;5754;43.726;7.416;2024-03-17T12:18:46;35.37;;;33.37;;
11396;SDS011;5754;43.726;7.416;2024-03-17T12:21:21;35.70;;;33.50;;
11396;SDS011;5754;43.726;7.416;2024-03-17T12:23:57;33.07;;;31.07;;
11396;SDS011;5754;43.726;7.416;2024-03-17T12:26:32;32.87;;;30.67;;
11396;SDS011;5754;43.726;7.416;2024-03-17T12:32:03;30.70;;;29.03;;
11396;SDS011;5754;43.726;7.416;2024-03-17T12:34:40;30.17;;;28.37;;
11396;SDS011;5754;43.726;7.416;2024-03-17T12:37:18;31.77;;;29.63;;
11396;SDS011;5754;43.726;7.416;2024-03-17T12:39:53;28.57;;;26.47;;
11396;SDS011;5754;43.726;7.416;2024-03-17T12:42:28;27.93;;;26.20;;
11396;SDS011;5754;43.726;7.416;2024-03-17T12:45:09;25.97;;;24.07;;
11396;SDS011;5754;43.726;7.416;2024-03-17T12:47:46;26.63;;;24.60;;
11396;SDS011;5754;43.726;7.416;2024-03-17T12:50:21;26.47;;;24.77;;
11396;SDS011;5754;43.726;7.416;2024-03-17T12:52:57;26.30;;;24.40;;
11396;SDS011;5754;43.726;7.416;2024-03-17T12:55:31;24.03;;;22.13;;
11396;SDS011;5754;43.726;7.416;2024-03-17T12:58:25;23.13;;;21.57;;
11396;SDS011;5754;43.726;7.416;2024-03-17T13:01:18;21.37;;;19.83;;
11396;SDS011;5754;43.726;7.416;2024-03-17T13:03:53;22.30;;;20.67;;
11396;SDS011;5754;43.726;7.416;2024-03-17T13:06:30;21.70;;;20.20;;
11396;SDS011;5754;43.726;7.416;2024-03-17T13:09:04;21.17;;;19.60;;
11396;SDS011;5754;43.726;7.416;2024-03-17T13:11:40;22.30;;;20.37;;
11396;SDS011;5754;43.726;7.416;2024-03-17T13:14:14;22.67;;;20.80;;
11396;SDS011;5754;43.726;7.416;2024-03-17T13:16:51;24.10;;;22.33;;
11396;SDS011;5754;43.726;7.416;2024-03-17T13:19:27;24.00;;;22.40;;
11396;SDS011;5754;43.726;7.416;2024-03-17T13:22:01;24.80;;;23.10;;
11396;SDS011;5754;43.726;7.416;2024-03-17T13:24:35;26.17;;;24.50;;
11396;SDS011;5754;43.726;7.416;2024-03-17T13:27:10;25.73;;;24.10;;
11396;SDS011;5754;43.726;7.416;2024-03-17T13:29:48;26.53;;;24.63;;
11396;SDS011;5754;43.726;7.416;2024-03-17T13:32:23;25.47;;;23.70;;
11396;SDS011;5754;43.726;7.416;2024-03-17T13:34:59;24.87;;;23.37;;
11396;SDS011;5754;43.726;7.416;2024-03-17T13:37:34;24.80;;;22.90;;
11396;SDS011;5754;43.726;7.416;2024-03-17T13:40:10;25.83;;;24.00;;
11396;SDS011;5754;43.726;7.416;2024-03-17T13:42:47;24.90;;;23.50;;
11396;SDS011;5754;43.726;7.416;2024-03-17T13:45:24;27.47;;;25.57;;
11396;SDS011;5754;43.726;7.416;2024-03-17T13:48:08;26.40;;;24.83;;
11396;SDS011;5754;43.726;7.416;2024-03-17T13:50:46;25.83;;;24.33;;
11396;SDS011;5754;43.726;7.416;2024-03-17T13:53:20;27.80;;;25.67;;
11396;SDS011;5754;43.726;7.416;2024-03-17T13:55:55;27.70;;;25.90;;
11396;SDS011;5754;43.726;7.416;2024-03-17T13:58:31;26.93;;;25.20;;
11396;SDS011;5754;43.726;7.416;2024-03-17T14:01:05;26.50;;;24.73;;
11396;SDS011;5754;43.726;7.416;2024-03-17T14:03:43;26.57;;;24.77;;
11396;SDS011;5754;43.726;7.416;2024-03-17T14:06:20;27.77;;;25.97;;
11396;SDS011;5754;43.726;7.416;2024-03-17T14:08:54;24.10;;;22.60;;
11396;SDS011;5754;43.726;7.416;2024-03-17T14:11:30;27.17;;;25.10;;
11396;SDS011;5754;43.726;7.416;2024-03-17T14:14:06;27.97;;;26.13;;
11396;SDS011;5754;43.726;7.416;2024-03-17T14:16:43;27.40;;;25.53;;
11396;SDS011;5754;43.726;7.416;2024-03-17T14:19:18;26.70;;;24.97;;
11396;SDS011;5754;43.726;7.416;2024-03-17T14:21:53;24.20;;;22.50;;
11396;SDS011;5754;43.726;7.416;2024-03-17T14:24:28;24.93;;;23.27;;
11396;SDS011;5754;43.726;7.416;2024-03-17T14:27:04;23.07;;;21.67;;
11396;SDS011;5754;43.726;7.416;2024-03-17T14:29:39;24.67;;;23.17;;
11396;SDS011;5754;43.726;7.416;2024-03-17T14:32:15;24.67;;;23.27;;
11396;SDS011;5754;43.726;7.416;2024-03-17T14:34:50;24.23;;;22.43;;
11396;SDS011;5754;43.726;7.416;2024-03-17T14:37:24;25.13;;;23.50;;
11396;SDS011;5754;43.726;7.416;2024-03-17T14:40:00;27.37;;;25.33;;
11396;SDS011;5754;43.726;7.416;2024-03-17T14:42:34;27.67;;;25.97;;
11396;SDS011;5754;43.726;7.416;2024-03-17T14:45:09;27.80;;;25.70;;
11396;SDS011;5754;43.726;7.416;2024-03-17T14:47:43;25.43;;;23.83;;
11396;SDS011;5754;43.726;7.416;2024-03-17T14:50:22;25.27;;;23.60;;
11396;SDS011;5754;43.726;7.416;2024-03-17T14:52:57;26.27;;;24.53;;
11396;SDS011;5754;43.726;7.416;2024-03-17T14:55:32;26.20;;;24.23;;
11396;SDS011;5754;43.726;7.416;2024-03-17T14:58:07;26.80;;;24.97;;
11396;SDS011;5754;43.726;7.416;2024-03-17T15:00:42;26.90;;;24.87;;
11396;SDS011;5754;43.726;7.416;2024-03-17T15:03:16;26.63;;;25.13;;
11396;SDS011;5754;43.726;7.416;2024-03-17T15:05:52;26.80;;;25.17;;
11396;SDS011;5754;43.726;7.416;2024-03-17T15:08:28;26.07;;;24.17;;
11396;SDS011;5754;43.726;7.416;2024-03-17T15:11:03;25.93;;;24.00;;
11396;SDS011;5754;43.726;7.416;2024-03-17T15:13:38;26.03;;;24.23;;
11396;SDS011;5754;43.726;7.416;2024-03-17T15:16:16;26.20;;;24.40;;
11396;SDS011;5754;43.726;7.416;2024-03-17T15:18:50;25.63;;;23.83;;
11396;SDS011;5754;43.726;7.416;2024-03-17T15:21:25;26.47;;;24.53;;
11396;SDS011;5754;43.726;7.416;2024-03-17T15:24:00;26.27;;;24.57;;
11396;SDS011;5754;43.726;7.416;2024-03-17T15:26:36;23.97;;;22.57;;
11396;SDS011;5754;43.726;7.416;2024-03-17T15:29:11;24.37;;;22.67;;
11396;SDS011;5754;43.726;7.416;2024-03-17T15:31:46;25.53;;;24.03;;
11396;SDS011;5754;43.726;7.416;2024-03-17T15:34:20;23.60;;;22.10;;
11396;SDS011;5754;43.726;7.416;2024-03-17T15:36:55;24.40;;;22.80;;
11396;SDS011;5754;43.726;7.416;2024-03-17T15:39:30;25.83;;;24.23;;
11396;SDS011;5754;43.726;7.416;2024-03-17T15:42:04;23.90;;;22.10;;